createdAt,value
2022-08-03T00:02:19.905Z,60.83
2022-08-03T00:04:47.666Z,61.11
2022-08-03T00:07:15.739Z,60.68
2022-08-03T00:09:43.296Z,59.89
2022-08-03T00:12:10.652Z,59.52
2022-08-03T00:14:37.800Z,59.56
2022-08-03T00:17:05.019Z,60.29
2022-08-03T00:19:32.267Z,60.11
2022-08-03T00:21:59.456Z,58.78
2022-08-03T00:24:26.715Z,58.94
2022-08-03T00:26:54.266Z,59.15
2022-08-03T00:29:21.516Z,59.55
2022-08-03T00:31:52.510Z,59.69
2022-08-03T00:34:57.410Z,59.03
2022-08-03T00:37:13.791Z,59.22
2022-08-03T00:39:41.248Z,59.37
2022-08-03T00:42:08.398Z,59.73
2022-08-03T00:44:45.788Z,60.41
2022-08-03T00:47:13.553Z,60.02
2022-08-03T00:49:42.023Z,59.32
2022-08-03T00:52:10.922Z,59.35
2022-08-03T00:54:38.935Z,59.98
2022-08-03T00:57:06.755Z,60.44
2022-08-03T00:59:34.930Z,60.00
2022-08-03T01:02:02.592Z,59.04
2022-08-03T01:04:29.745Z,58.77
2022-08-03T01:07:22.844Z,59.18
2022-08-03T01:10:02.394Z,60.26
2022-08-03T01:12:36.488Z,60.31
2022-08-03T01:15:30.050Z,59.54
2022-08-03T01:18:10.700Z,59.67
2022-08-03T01:20:43.802Z,60.00
2022-08-03T01:23:48.916Z,60.69
2022-08-03T01:26:49.245Z,59.98
2022-08-03T01:29:50.628Z,59.54
2022-08-03T01:32:59.770Z,60.04
2022-08-03T01:35:14.946Z,60.50
2022-08-03T01:37:57.100Z,60.95
2022-08-03T01:40:27.582Z,60.34
2022-08-03T01:42:57.951Z,59.28
2022-08-03T01:45:26.373Z,58.87
2022-08-03T01:47:55.580Z,59.12
2022-08-03T01:50:29.887Z,59.76
2022-08-03T01:52:58.880Z,59.27
2022-08-03T01:55:29.984Z,58.98
2022-08-03T01:58:06.087Z,58.40
2022-08-03T02:00:37.508Z,59.12
2022-08-03T02:03:07.148Z,60.07
2022-08-03T02:05:35.294Z,59.74
2022-08-03T02:08:05.251Z,58.77
2022-08-03T02:10:35.769Z,58.97
2022-08-03T02:13:06.631Z,59.72
2022-08-03T02:15:36.262Z,60.17
2022-08-03T02:18:06.405Z,60.09
2022-08-03T02:20:36.706Z,59.45
2022-08-03T02:23:04.265Z,59.46
2022-08-03T02:25:33.860Z,59.40
2022-08-03T02:28:15.768Z,59.85
2022-08-03T02:30:45.744Z,59.64
2022-08-03T02:33:25.375Z,59.40
2022-08-03T02:35:54.163Z,59.17
2022-08-03T02:38:26.523Z,59.28
2022-08-03T02:40:58.116Z,59.97
2022-08-03T02:43:25.698Z,60.15
2022-08-03T02:45:54.793Z,59.57
2022-08-03T02:48:26.972Z,58.90
2022-08-03T02:50:57.328Z,58.94
2022-08-03T02:53:29.657Z,59.31
2022-08-03T02:55:58.345Z,60.47
2022-08-03T02:58:26.623Z,60.39
2022-08-03T03:00:54.459Z,59.44
2022-08-03T03:03:22.967Z,59.19
2022-08-03T03:05:57.488Z,58.66
2022-08-03T03:08:28.630Z,59.30
2022-08-03T03:11:01.931Z,59.85
2022-08-03T03:13:31.441Z,59.59
2022-08-03T03:16:01.960Z,59.05
2022-08-03T03:18:31.305Z,58.79
2022-08-03T03:21:00.910Z,59.16
2022-08-03T03:23:29.457Z,59.31
2022-08-03T03:25:58.714Z,59.95
2022-08-03T03:28:26.930Z,59.77
2022-08-03T03:30:54.277Z,58.92
2022-08-03T03:33:22.896Z,58.60
2022-08-03T03:35:51.959Z,58.63
2022-08-03T03:38:20.213Z,58.69
2022-08-03T03:40:48.002Z,59.40
2022-08-03T03:43:15.453Z,59.27
2022-08-03T03:45:43.422Z,58.51
2022-08-03T03:48:10.982Z,58.30
2022-08-03T03:50:41.204Z,58.63
2022-08-03T03:53:12.689Z,58.73
2022-08-03T03:56:02.432Z,59.39
2022-08-03T03:58:28.666Z,58.34
2022-08-03T04:00:55.999Z,57.76
2022-08-03T04:03:23.575Z,57.72
2022-08-03T04:06:09.463Z,57.83
2022-08-03T04:08:55.251Z,58.92
2022-08-03T04:11:43.802Z,58.27
2022-08-03T04:14:21.295Z,57.65
2022-08-03T04:17:02.884Z,57.29
2022-08-03T04:19:40.892Z,57.44
2022-08-03T04:22:12.137Z,57.90
2022-08-03T04:24:43.493Z,57.49
2022-08-03T04:27:14.552Z,56.45
2022-08-03T04:29:48.798Z,56.28
2022-08-03T04:32:17.909Z,56.72
2022-08-03T04:34:45.537Z,56.85
2022-08-03T04:37:18.191Z,57.13
2022-08-03T04:39:49.520Z,54.82
2022-08-03T04:42:20.133Z,52.05
2022-08-03T04:44:49.656Z,49.96
2022-08-03T04:47:17.218Z,48.51
2022-08-03T04:49:44.783Z,47.79
2022-08-03T04:52:12.131Z,47.77
2022-08-03T04:54:44.383Z,47.87
2022-08-03T04:57:22.085Z,47.45
2022-08-03T05:00:02.485Z,48.06
2022-08-03T05:02:32.207Z,48.20
2022-08-03T05:04:59.829Z,48.21
2022-08-03T05:07:35.559Z,47.95
2022-08-03T05:10:15.009Z,47.87
2022-08-03T05:12:45.315Z,47.69
2022-08-03T05:15:13.327Z,46.88
2022-08-03T05:17:40.708Z,46.25
2022-08-03T05:20:09.042Z,45.87
2022-08-03T05:22:36.300Z,45.53
2022-08-03T05:25:04.423Z,45.67
2022-08-03T05:27:31.516Z,44.86
2022-08-03T05:30:27.346Z,45.18
2022-08-03T05:32:46.400Z,45.75
2022-08-03T05:36:02.098Z,45.77
2022-08-03T05:38:02.712Z,46.80
2022-08-03T05:40:31.196Z,47.78
2022-08-03T05:42:58.855Z,48.51
2022-08-03T05:45:28.429Z,49.23
2022-08-03T05:47:56.273Z,48.96
2022-08-03T05:50:23.662Z,49.12
2022-08-03T05:52:50.880Z,49.62
2022-08-03T05:55:19.316Z,50.23
2022-08-03T05:57:49.298Z,50.80
2022-08-03T06:00:17.354Z,50.50
2022-08-03T06:02:44.859Z,50.37
2022-08-03T06:05:12.217Z,49.82
2022-08-03T06:07:39.467Z,49.51
2022-08-03T06:10:35.524Z,49.02
2022-08-03T06:12:54.672Z,48.53
2022-08-03T06:15:22.260Z,47.94
2022-08-03T06:17:51.519Z,46.95
2022-08-03T06:20:21.005Z,47.17
2022-08-03T06:22:51.393Z,46.74
2022-08-03T06:25:27.817Z,45.60
2022-08-03T06:27:55.073Z,44.98
2022-08-03T06:30:22.422Z,45.48
2022-08-03T06:32:51.849Z,44.80
2022-08-03T06:35:20.436Z,44.03
2022-08-03T06:37:49.709Z,43.90
2022-08-03T06:40:30.066Z,44.74
2022-08-03T06:43:02.874Z,45.08
2022-08-03T06:45:31.591Z,45.23
2022-08-03T06:48:05.080Z,43.39
2022-08-03T06:50:33.354Z,41.87
2022-08-03T06:53:02.474Z,40.99
2022-08-03T06:55:30.067Z,41.04
2022-08-03T06:57:59.813Z,42.45
2022-08-03T07:00:31.232Z,43.34
2022-08-03T07:02:58.711Z,43.61
2022-08-03T07:05:26.549Z,44.50
2022-08-03T07:08:02.074Z,45.55
2022-08-03T07:10:29.554Z,46.10
2022-08-03T07:12:57.036Z,46.52
2022-08-03T07:15:54.989Z,46.74
2022-08-03T07:18:12.405Z,46.98
2022-08-03T07:20:39.653Z,47.31
2022-08-03T07:23:06.804Z,47.56
2022-08-03T07:25:34.159Z,47.92
2022-08-03T07:28:01.409Z,48.62
2022-08-03T07:30:29.017Z,48.82
2022-08-03T07:32:56.222Z,49.81
2022-08-03T07:35:25.082Z,50.46
2022-08-03T07:37:55.040Z,51.46
2022-08-03T07:40:22.819Z,50.19
2022-08-03T07:42:53.326Z,49.41
2022-08-03T07:45:23.587Z,49.02
2022-08-03T07:47:53.228Z,49.41
2022-08-03T07:50:21.331Z,49.77
2022-08-03T07:52:50.211Z,49.62
2022-08-03T07:55:24.046Z,49.85
2022-08-03T07:58:00.487Z,50.41
2022-08-03T08:00:27.755Z,51.43
2022-08-03T08:02:54.991Z,50.81
2022-08-03T08:05:22.248Z,49.55
2022-08-03T08:07:51.075Z,49.37
2022-08-03T08:10:19.566Z,50.13
2022-08-03T08:12:47.274Z,50.39
2022-08-03T08:15:14.935Z,50.51
2022-08-03T08:17:47.309Z,50.54
2022-08-03T08:20:28.437Z,50.90
2022-08-03T08:23:09.623Z,51.85
2022-08-03T08:25:53.096Z,51.21
2022-08-03T08:28:32.608Z,50.20
2022-08-03T08:31:01.861Z,48.83
2022-08-03T08:33:42.486Z,48.20
2022-08-03T08:36:15.778Z,48.32
2022-08-03T08:38:45.131Z,48.30
2022-08-03T08:41:14.414Z,48.67
2022-08-03T08:43:42.414Z,48.62
2022-08-03T08:46:23.589Z,48.10
2022-08-03T08:48:52.832Z,47.32
2022-08-03T08:51:22.756Z,47.97
2022-08-03T08:53:53.134Z,47.75
2022-08-03T08:56:23.405Z,48.02
2022-08-03T08:59:00.779Z,48.07
2022-08-03T09:01:28.591Z,48.30
2022-08-03T09:03:56.022Z,48.07
2022-08-03T09:06:24.538Z,48.17
2022-08-03T09:08:51.782Z,47.57
2022-08-03T09:12:00.356Z,47.65
2022-08-03T09:14:33.603Z,46.50
2022-08-03T09:17:02.127Z,45.52
2022-08-03T09:19:31.167Z,45.78
2022-08-03T09:22:15.225Z,45.44
2022-08-03T09:25:23.503Z,45.29
2022-08-03T09:27:48.496Z,45.65
2022-08-03T09:30:34.508Z,46.59
2022-08-03T09:33:08.393Z,47.80
2022-08-03T09:35:57.636Z,48.63
2022-08-03T09:38:29.012Z,53.04
2022-08-03T09:41:00.493Z,56.36
2022-08-03T09:43:28.611Z,57.69
2022-08-03T09:46:07.769Z,58.30
2022-08-03T09:48:37.067Z,61.07
2022-08-03T09:51:13.100Z,61.61
2022-08-03T09:53:59.713Z,63.60
2022-08-03T09:56:45.507Z,63.44
2022-08-03T09:59:14.620Z,62.06
2022-08-03T10:01:42.594Z,61.35
2022-08-03T10:06:15.683Z,62.16
2022-08-03T10:08:43.265Z,59.46
2022-08-03T10:11:10.496Z,57.93
2022-08-03T10:13:38.773Z,57.13
2022-08-03T10:16:23.180Z,56.26
2022-08-03T10:18:52.380Z,55.64
2022-08-03T10:21:20.599Z,56.18
2022-08-03T10:23:48.886Z,54.79
2022-08-03T10:26:22.801Z,54.46
2022-08-03T10:28:53.549Z,54.73
2022-08-03T10:31:24.038Z,54.69
2022-08-03T10:33:53.332Z,55.34
2022-08-03T10:36:24.494Z,54.39
2022-08-03T10:38:53.858Z,52.35
2022-08-03T10:41:23.644Z,51.82
2022-08-03T10:43:56.920Z,52.73
2022-08-03T10:46:26.521Z,53.92
2022-08-03T10:48:54.284Z,55.54
2022-08-03T10:51:23.066Z,55.82
2022-08-03T10:53:54.676Z,55.34
2022-08-03T10:56:54.591Z,55.91
2022-08-03T10:59:46.972Z,55.63
2022-08-03T11:02:18.163Z,56.13
2022-08-03T11:04:45.568Z,56.23
2022-08-03T11:07:23.471Z,55.42
2022-08-03T11:09:52.967Z,53.93
2022-08-03T11:12:32.297Z,54.59
2022-08-03T11:15:02.836Z,54.98
2022-08-03T11:17:30.275Z,54.58
2022-08-03T11:19:58.653Z,55.16
2022-08-03T11:22:47.346Z,53.51
2022-08-03T11:25:54.345Z,53.43
2022-08-03T11:28:27.197Z,52.66
2022-08-03T11:30:54.552Z,53.92
2022-08-03T11:33:32.041Z,54.55
2022-08-03T11:36:02.091Z,53.53
2022-08-03T11:38:29.412Z,52.43
2022-08-03T11:40:56.665Z,51.88
2022-08-03T11:43:37.701Z,51.92
2022-08-03T11:46:13.793Z,52.11
2022-08-03T11:49:09.300Z,51.38
2022-08-03T11:51:38.134Z,52.49
2022-08-03T11:54:06.805Z,52.36
2022-08-03T11:56:54.118Z,51.83
2022-08-03T11:59:33.060Z,54.79
2022-08-03T12:02:13.545Z,56.47
2022-08-03T12:05:10.344Z,59.46
2022-08-03T12:08:03.665Z,61.85
2022-08-03T12:10:34.548Z,60.90
2022-08-03T12:13:03.089Z,59.55
2022-08-03T12:15:34.130Z,58.68
2022-08-03T12:18:12.590Z,58.62
2022-08-03T12:20:40.350Z,58.96
2022-08-03T12:23:10.055Z,57.97
2022-08-03T12:25:40.029Z,56.28
2022-08-03T12:28:37.668Z,55.77
2022-08-03T12:31:13.385Z,55.99
2022-08-03T12:34:05.420Z,56.42
2022-08-03T12:36:35.031Z,56.77
2022-08-03T12:39:09.353Z,56.05
2022-08-03T12:41:38.850Z,56.40
2022-08-03T12:44:07.647Z,56.54
2022-08-03T12:46:34.902Z,57.15
2022-08-03T12:49:15.614Z,56.33
2022-08-03T12:51:42.911Z,55.05
2022-08-03T12:54:34.847Z,54.90
2022-08-03T12:57:02.094Z,54.87
2022-08-03T12:59:40.565Z,55.33
2022-08-03T13:02:18.879Z,55.86
2022-08-03T13:04:48.160Z,54.67
2022-08-03T13:07:16.536Z,54.33
2022-08-03T13:09:49.850Z,54.78
2022-08-03T13:12:20.913Z,54.65
2022-08-03T13:14:55.306Z,55.03
2022-08-03T13:17:23.120Z,54.44
2022-08-03T13:19:50.779Z,52.88
2022-08-03T13:22:20.182Z,53.05
2022-08-03T13:24:49.610Z,52.12
2022-08-03T13:28:01.092Z,53.26
2022-08-03T13:30:05.287Z,53.81
2022-08-03T13:32:34.070Z,52.66
2022-08-03T13:35:03.004Z,51.55
2022-08-03T13:37:32.605Z,51.77
2022-08-03T13:40:03.059Z,52.01
2022-08-03T13:42:34.406Z,52.34
2022-08-03T13:45:02.740Z,53.31
2022-08-03T13:47:30.084Z,53.06
2022-08-03T13:49:59.780Z,53.23
2022-08-03T13:52:34.653Z,53.56
2022-08-03T13:55:05.459Z,53.22
2022-08-03T13:58:11.821Z,54.85
2022-08-03T14:00:27.164Z,55.54
2022-08-03T14:03:06.766Z,56.96
2022-08-03T14:05:38.599Z,62.75
2022-08-03T14:08:07.220Z,62.90
2022-08-03T14:10:37.176Z,63.31
2022-08-03T14:13:05.722Z,64.45
2022-08-03T14:15:37.424Z,64.06
2022-08-03T14:18:12.685Z,63.84
2022-08-03T14:20:50.059Z,63.40
2022-08-03T14:23:21.885Z,63.70
2022-08-03T14:25:51.617Z,64.49
2022-08-03T14:28:21.454Z,64.27
2022-08-03T14:30:48.878Z,64.55
2022-08-03T14:33:16.231Z,64.47
2022-08-03T14:35:43.817Z,64.06
2022-08-03T14:38:11.278Z,63.35
2022-08-03T14:40:38.469Z,63.51
2022-08-03T14:43:05.644Z,62.86
2022-08-03T14:45:33.030Z,63.54
2022-08-03T14:50:30.252Z,63.50
2022-08-03T14:50:51.391Z,62.69
2022-08-03T14:53:19.742Z,62.33
2022-08-03T14:55:51.520Z,60.99
2022-08-03T14:58:25.406Z,60.52
2022-08-03T15:00:54.274Z,61.03
2022-08-03T15:03:25.800Z,61.13
2022-08-03T15:05:53.547Z,60.17
2022-08-03T15:08:22.332Z,59.57
2022-08-03T15:10:50.768Z,58.87
2022-08-03T15:13:18.593Z,59.30
2022-08-03T15:15:46.167Z,59.16
2022-08-03T15:18:13.490Z,58.65
2022-08-03T15:20:46.198Z,58.33
2022-08-03T15:23:16.168Z,57.92
2022-08-03T15:26:32.315Z,57.03
2022-08-03T15:28:32.618Z,57.70
2022-08-03T15:31:00.684Z,57.91
2022-08-03T15:33:29.467Z,58.02
2022-08-03T15:35:57.639Z,58.25
2022-08-03T15:38:26.185Z,57.55
2022-08-03T15:40:55.183Z,57.62
2022-08-03T15:43:23.912Z,57.48
2022-08-03T15:46:26.471Z,58.43
2022-08-03T15:48:40.522Z,59.22
2022-08-03T15:51:09.049Z,58.25
2022-08-03T15:53:36.769Z,57.50
2022-08-03T15:56:11.221Z,57.51
2022-08-03T15:59:09.726Z,57.95
2022-08-03T16:01:28.112Z,58.61
2022-08-03T16:03:55.368Z,58.83
2022-08-03T16:06:35.289Z,58.61
2022-08-03T16:09:24.306Z,58.21
2022-08-03T16:11:56.038Z,58.89
2022-08-03T16:14:32.385Z,58.87
2022-08-03T16:17:03.855Z,59.47
2022-08-03T16:19:31.224Z,59.89
2022-08-03T16:21:58.477Z,59.26
2022-08-03T16:24:27.723Z,58.83
2022-08-03T16:26:56.146Z,59.12
2022-08-03T16:29:23.917Z,58.86
2022-08-03T16:31:52.694Z,59.94
2022-08-03T16:34:20.704Z,60.04
2022-08-03T16:36:48.017Z,59.43
2022-08-03T16:39:15.605Z,59.20
2022-08-03T16:41:54.102Z,58.96
2022-08-03T16:44:31.419Z,59.03
2022-08-03T16:46:59.789Z,59.83
2022-08-03T16:49:55.126Z,60.06
2022-08-03T16:52:16.691Z,59.48
2022-08-03T16:54:52.735Z,59.06
2022-08-03T16:57:31.824Z,58.29
2022-08-03T17:00:12.052Z,58.52
2022-08-03T17:02:48.078Z,59.33
2022-08-03T17:05:15.750Z,59.42
2022-08-03T17:07:47.006Z,58.50
2022-08-03T17:10:21.932Z,58.26
2022-08-03T17:12:54.853Z,58.28
2022-08-03T17:15:38.322Z,58.58
2022-08-03T17:18:18.398Z,59.38
2022-08-03T17:20:51.048Z,59.39
2022-08-03T17:23:34.749Z,58.71
2022-08-03T17:26:10.573Z,58.62
2022-08-03T17:28:52.022Z,58.78
2022-08-03T17:31:31.234Z,58.53
2022-08-03T17:34:01.753Z,59.06
2022-08-03T17:36:53.982Z,58.78
2022-08-03T17:39:27.045Z,58.36
2022-08-03T17:42:29.015Z,58.13
2022-08-03T17:44:54.619Z,58.26
2022-08-03T17:47:24.023Z,58.82
2022-08-03T17:49:57.111Z,59.00
2022-08-03T17:52:30.609Z,58.32
2022-08-03T17:55:56.878Z,57.85
2022-08-03T17:58:15.082Z,58.30
2022-08-03T18:01:04.971Z,58.33
2022-08-03T18:03:59.325Z,59.47
2022-08-03T18:06:31.840Z,59.08
2022-08-03T18:10:06.386Z,58.84
2022-08-03T18:11:54.184Z,58.46
2022-08-03T18:14:35.923Z,58.78
2022-08-03T18:17:10.545Z,59.04
2022-08-03T18:20:01.991Z,58.67
2022-08-03T18:22:30.595Z,57.97
2022-08-03T18:25:00.620Z,57.70
2022-08-03T18:27:42.488Z,57.75
2022-08-03T18:30:14.620Z,58.33
2022-08-03T18:33:00.713Z,58.42
2022-08-03T18:35:53.690Z,57.22
2022-08-03T18:38:18.928Z,57.28
2022-08-03T18:40:48.438Z,57.63
2022-08-03T18:43:17.758Z,58.23
2022-08-03T18:45:55.754Z,58.80
2022-08-03T18:48:28.881Z,58.19
2022-08-03T18:50:59.177Z,57.57
2022-08-03T18:54:01.917Z,57.76
2022-08-03T18:56:45.376Z,58.29
2022-08-03T18:59:38.259Z,59.17
2022-08-03T19:02:23.208Z,59.05
2022-08-03T19:04:54.545Z,58.16
2022-08-03T19:07:27.288Z,58.21
2022-08-03T19:09:59.295Z,58.70
2022-08-03T19:12:48.389Z,59.62
2022-08-03T19:15:16.012Z,59.00
2022-08-03T19:17:52.958Z,58.64
2022-08-03T19:20:26.440Z,58.44
2022-08-03T19:22:57.019Z,58.43
2022-08-03T19:25:34.954Z,59.12
2022-08-03T19:28:06.181Z,59.15
2022-08-03T19:30:40.130Z,58.42
2022-08-03T19:33:17.056Z,58.87
2022-08-03T19:35:55.436Z,58.85
2022-08-03T19:38:28.203Z,59.40
2022-08-03T19:41:03.864Z,59.14
2022-08-03T19:43:49.346Z,58.66
2022-08-03T19:46:30.168Z,58.32
2022-08-03T19:49:19.621Z,58.63
2022-08-03T19:52:02.453Z,59.88
2022-08-03T19:54:53.305Z,59.42
2022-08-03T19:57:25.062Z,58.99
2022-08-03T19:59:54.099Z,58.29
2022-08-03T20:02:27.087Z,58.72
2022-08-03T20:04:59.787Z,59.24
2022-08-03T20:07:30.474Z,58.50
2022-08-03T20:10:01.283Z,58.24
2022-08-03T20:12:33.097Z,57.56
2022-08-03T20:15:04.706Z,58.11
2022-08-03T20:17:56.178Z,58.51
2022-08-03T20:20:23.537Z,58.58
2022-08-03T20:22:57.719Z,58.66
2022-08-03T20:25:38.335Z,58.03
2022-08-03T20:28:15.294Z,58.59
2022-08-03T20:30:47.413Z,59.03
2022-08-03T20:33:19.011Z,58.90
2022-08-03T20:35:49.657Z,58.49
2022-08-03T20:38:20.274Z,58.02
2022-08-03T20:40:54.782Z,58.15
2022-08-03T20:43:22.546Z,58.83
2022-08-03T20:46:00.734Z,58.83
2022-08-03T20:48:37.572Z,58.53
2022-08-03T20:51:15.713Z,57.73
2022-08-03T20:53:57.032Z,58.39
2022-08-03T20:56:33.732Z,59.03
2022-08-03T20:59:06.111Z,58.64
2022-08-03T21:01:36.406Z,58.25
2022-08-03T21:04:06.737Z,58.39
2022-08-03T21:06:45.659Z,58.57
2022-08-03T21:09:24.872Z,59.49
2022-08-03T21:12:03.525Z,58.88
2022-08-03T21:14:51.971Z,58.63
2022-08-03T21:17:39.170Z,58.00
2022-08-03T21:20:10.529Z,58.29
2022-08-03T21:22:39.931Z,58.94
2022-08-03T21:25:09.513Z,58.91
2022-08-03T21:27:37.502Z,58.08
2022-08-03T21:30:08.437Z,58.84
2022-08-03T21:32:36.516Z,58.58
2022-08-03T21:35:04.468Z,59.59
2022-08-03T21:37:31.716Z,59.22
2022-08-03T21:39:59.272Z,58.25
2022-08-03T21:42:26.835Z,58.43
2022-08-03T21:44:54.539Z,58.75
2022-08-03T21:47:23.947Z,59.07
2022-08-03T21:50:08.719Z,59.20
2022-08-03T21:52:42.819Z,58.96
2022-08-03T21:55:18.178Z,58.88
2022-08-03T21:57:53.086Z,59.11
2022-08-03T22:00:23.274Z,59.85
2022-08-03T22:02:57.458Z,59.59
2022-08-03T22:05:42.608Z,59.02
2022-08-03T22:08:13.915Z,59.26
2022-08-03T22:10:43.970Z,59.34
2022-08-03T22:13:13.170Z,59.76
2022-08-03T22:15:41.394Z,59.98
2022-08-03T22:18:08.727Z,59.16
2022-08-03T22:20:36.544Z,59.05
2022-08-03T22:23:06.288Z,59.04
2022-08-03T22:25:39.764Z,59.80
2022-08-03T22:28:11.692Z,60.93
2022-08-03T22:30:40.480Z,60.48
2022-08-03T22:33:11.479Z,59.84
2022-08-03T22:35:47.832Z,59.48
2022-08-03T22:38:17.900Z,59.58
2022-08-03T22:40:48.671Z,60.28
2022-08-03T22:43:16.534Z,60.48
2022-08-03T22:46:10.171Z,59.98
2022-08-03T22:48:40.982Z,59.41
2022-08-03T22:51:09.586Z,59.62
2022-08-03T22:53:37.167Z,59.93
2022-08-03T22:56:05.012Z,59.85
2022-08-03T22:58:32.177Z,59.58
2022-08-03T23:01:06.172Z,59.41
2022-08-03T23:03:59.853Z,59.33
2022-08-03T23:06:26.676Z,59.66
2022-08-03T23:08:54.619Z,60.54
2022-08-03T23:11:24.261Z,60.53
2022-08-03T23:13:57.154Z,59.58
2022-08-03T23:16:29.046Z,59.65
2022-08-03T23:18:59.796Z,59.59
2022-08-03T23:22:00.385Z,60.40
2022-08-03T23:24:33.055Z,60.61
2022-08-03T23:27:03.201Z,59.58
2022-08-03T23:29:34.010Z,59.74
2022-08-03T23:32:02.246Z,59.94
2022-08-03T23:34:51.760Z,60.51
2022-08-03T23:37:20.836Z,60.12
2022-08-03T23:39:49.129Z,59.85
2022-08-03T23:42:21.220Z,59.49
2022-08-03T23:44:54.285Z,59.72
2022-08-03T23:47:21.602Z,60.30
2022-08-03T23:49:50.068Z,60.31
2022-08-03T23:52:45.741Z,59.94
2022-08-03T23:55:43.504Z,59.63
2022-08-03T23:58:49.863Z,59.81
